Time;durP1;ratioP1;P1;durP2;ratioP2;P2;SDS_P1;SDS_P2;PMS_P1;PMS_P2;Temp;Humidity;BMP_temperature;BMP_pressure;BME280_temperature;BME280_humidity;BME280_pressure;Samples;Min_cycle;Max_cycle;Signal;HPM_P1;HPM_P2
2023/06/05 00:01:59;;;;;;;5.00;4.60;;;23.30;61.80;;;;;;5025911;28;20014;-55
2023/06/05 00:04:25;;;;;;;7.35;4.75;;;23.20;61.70;;;;;;5027102;28;20022;-55
2023/06/05 00:06:50;;;;;;;8.35;4.90;;;23.20;61.80;;;;;;5025891;28;20033;-55
2023/06/05 00:09:16;;;;;;;8.82;4.07;;;23.20;61.90;;;;;;5038162;28;20052;-55
2023/06/05 00:11:42;;;;;;;7.40;4.28;;;23.10;62.00;;;;;;5029235;28;20036;-55
2023/06/05 00:14:08;;;;;;;6.32;4.70;;;23.10;62.00;;;;;;5028520;28;20041;-55
2023/06/05 00:16:34;;;;;;;5.43;4.32;;;23.10;62.00;;;;;;5027506;28;20041;-55
2023/06/05 00:19:00;;;;;;;5.80;4.63;;;23.00;62.10;;;;;;5025135;28;20052;-55
2023/06/05 00:21:26;;;;;;;9.57;4.40;;;23.00;62.20;;;;;;5026936;28;20394;-55
2023/06/05 00:23:51;;;;;;;6.32;4.28;;;23.00;62.30;;;;;;5041920;28;20121;-55
2023/06/05 00:26:17;;;;;;;7.68;4.05;;;23.00;62.40;;;;;;5042289;28;20053;-55
2023/06/05 00:28:43;;;;;;;4.82;4.28;;;22.90;62.30;;;;;;5041184;28;20499;-54
2023/06/05 00:31:08;;;;;;;5.65;4.57;;;22.90;62.50;;;;;;5066636;28;20025;-55
2023/06/05 00:33:34;;;;;;;5.63;4.32;;;22.90;62.60;;;;;;5052847;28;20037;-55
2023/06/05 00:35:59;;;;;;;5.70;4.07;;;22.80;62.70;;;;;;5038924;28;20022;-55
2023/06/05 00:38:26;;;;;;;5.20;4.22;;;22.80;62.80;;;;;;5041605;28;20033;-55
2023/06/05 00:40:51;;;;;;;6.55;4.50;;;22.70;62.80;;;;;;5041637;28;20029;-55
2023/06/05 00:43:17;;;;;;;4.72;4.15;;;22.70;62.90;;;;;;5041692;28;20030;-55
2023/06/05 00:45:42;;;;;;;5.00;4.38;;;22.70;63.00;;;;;;5050788;28;20077;-55
2023/06/05 00:48:08;;;;;;;5.90;4.57;;;22.70;63.10;;;;;;5048032;28;20079;-55
2023/06/05 00:50:34;;;;;;;6.63;4.43;;;22.60;63.10;;;;;;5064853;28;20047;-55
2023/06/05 00:53:01;;;;;;;5.35;4.47;;;22.60;63.20;;;;;;5035447;28;20026;-55
2023/06/05 00:55:26;;;;;;;6.80;4.18;;;22.60;63.20;;;;;;5041491;28;20025;-55
2023/06/05 00:57:52;;;;;;;7.53;4.63;;;22.60;63.20;;;;;;5054181;28;20745;-55
2023/06/05 01:00:18;;;;;;;4.45;4.05;;;22.60;63.30;;;;;;5024228;28;20045;-55
2023/06/05 01:02:44;;;;;;;4.82;4.38;;;22.50;63.20;;;;;;5035063;28;20048;-55
2023/06/05 01:05:09;;;;;;;9.48;4.32;;;22.50;63.20;;;;;;5031175;28;20030;-55
2023/06/05 01:07:37;;;;;;;6.53;4.15;;;22.50;63.30;;;;;;5040843;28;20026;-55
2023/06/05 01:10:04;;;;;;;6.55;4.63;;;22.50;64.10;;;;;;5038375;28;20034;-55
2023/06/05 01:12:39;;;;;;;7.90;4.57;;;22.40;63.40;;;;;;5010228;28;20109;-55
2023/06/05 01:15:05;;;;;;;6.53;4.47;;;22.40;63.50;;;;;;5046063;28;20037;-54
2023/06/05 01:17:33;;;;;;;5.63;4.55;;;22.40;63.60;;;;;;5039811;28;20022;-55
2023/06/05 01:20:07;;;;;;;5.93;4.40;;;22.30;63.60;;;;;;5024385;28;20049;-55
2023/06/05 01:22:34;;;;;;;5.10;4.50;;;22.30;63.60;;;;;;5024878;28;20022;-55
2023/06/05 01:25:01;;;;;;;4.97;4.18;;;22.30;63.70;;;;;;5037074;28;20030;-55
2023/06/05 01:27:48;;;;;;;7.28;4.65;;;22.20;63.70;;;;;;5041322;28;20018;-54
2023/06/05 01:30:33;;;;;;;7.45;4.40;;;22.20;63.70;;;;;;5024052;28;20084;-54
2023/06/05 01:33:07;;;;;;;6.25;4.13;;;22.20;63.70;;;;;;5025354;28;20034;-55
2023/06/05 01:35:33;;;;;;;6.22;4.30;;;22.20;63.80;;;;;;5023935;28;20060;-55
2023/06/05 01:37:59;;;;;;;6.75;4.60;;;22.10;64.50;;;;;;5045804;28;20085;-55
2023/06/05 01:40:25;;;;;;;4.97;4.00;;;22.10;63.90;;;;;;5035049;28;20061;-55
2023/06/05 01:42:51;;;;;;;5.55;4.10;;;22.10;63.90;;;;;;5024651;28;20022;-55
2023/06/05 01:45:17;;;;;;;4.93;4.32;;;22.10;63.90;;;;;;5042822;28;20458;-55
2023/06/05 01:47:42;;;;;;;6.18;4.53;;;22.10;63.90;;;;;;5034662;28;20046;-55
2023/06/05 01:50:09;;;;;;;5.05;4.40;;;22.00;64.00;;;;;;5035068;28;20459;-55
2023/06/05 01:52:35;;;;;;;11.13;4.22;;;22.00;64.00;;;;;;5043964;28;20045;-55
2023/06/05 01:55:01;;;;;;;4.53;4.13;;;22.00;64.00;;;;;;5031235;28;20044;-55
2023/06/05 01:57:27;;;;;;;6.65;4.60;;;21.90;64.10;;;;;;5023824;28;20022;-55
2023/06/05 01:59:54;;;;;;;5.90;4.32;;;21.90;64.10;;;;;;5031069;28;20041;-55
2023/06/05 02:02:21;;;;;;;5.25;4.75;;;21.90;64.10;;;;;;5023809;28;20026;-55
2023/06/05 02:04:47;;;;;;;5.70;4.15;;;21.80;64.10;;;;;;5037420;28;20037;-55
2023/06/05 02:07:16;;;;;;;5.82;4.30;;;21.80;64.10;;;;;;5042271;28;20029;-55
2023/06/05 02:09:42;;;;;;;5.15;4.07;;;21.80;64.20;;;;;;5035545;28;20069;-55
2023/06/05 02:12:07;;;;;;;6.32;4.00;;;21.70;64.20;;;;;;5025188;28;20049;-55
2023/06/05 02:14:35;;;;;;;6.07;4.28;;;21.70;64.30;;;;;;5029949;28;20486;-55
2023/06/05 02:17:07;;;;;;;5.13;4.63;;;21.70;64.30;;;;;;5035638;28;20021;-55
2023/06/05 02:19:35;;;;;;;5.90;4.20;;;21.70;64.40;;;;;;5031603;28;20117;-54
2023/06/05 02:22:01;;;;;;;8.55;4.50;;;21.70;64.40;;;;;;5031019;28;20021;-55
2023/06/05 02:24:27;;;;;;;6.20;4.75;;;21.70;64.40;;;;;;5033477;28;20094;-55
2023/06/05 02:26:52;;;;;;;6.85;4.50;;;21.60;64.50;;;;;;5018248;28;20026;-55
2023/06/05 02:29:18;;;;;;;8.85;4.18;;;21.60;64.50;;;;;;5029479;28;20034;-55
2023/06/05 02:31:43;;;;;;;4.70;4.18;;;21.60;64.60;;;;;;5043573;28;20044;-55
2023/06/05 02:34:09;;;;;;;4.40;4.00;;;21.60;64.50;;;;;;5026285;28;20052;-55
2023/06/05 02:36:35;;;;;;;5.07;4.38;;;21.60;64.50;;;;;;5059282;28;20038;-55
2023/06/05 02:39:01;;;;;;;5.60;4.28;;;21.50;64.50;;;;;;5033026;28;20128;-55
2023/06/05 02:41:27;;;;;;;4.80;4.30;;;21.50;64.50;;;;;;5023376;28;20057;-55
2023/06/05 02:43:56;;;;;;;8.13;4.15;;;21.50;64.60;;;;;;5026722;28;20049;-55
2023/06/05 02:46:22;;;;;;;5.65;4.15;;;21.40;64.60;;;;;;5044213;28;20076;-55
2023/06/05 02:48:47;;;;;;;6.75;4.05;;;21.40;64.60;;;;;;5028628;28;20034;-55
2023/06/05 02:51:13;;;;;;;4.93;4.07;;;21.40;64.70;;;;;;5043913;28;20108;-55
2023/06/05 02:53:38;;;;;;;4.93;4.10;;;21.40;65.40;;;;;;5043679;28;20176;-55
2023/06/05 02:56:04;;;;;;;4.97;4.32;;;21.30;64.80;;;;;;5043549;28;20041;-55
2023/06/05 02:58:31;;;;;;;4.65;3.60;;;21.30;64.80;;;;;;5049435;28;20045;-55
2023/06/05 03:01:01;;;;;;;4.13;3.72;;;21.30;64.80;;;;;;5045908;28;20048;-55
2023/06/05 03:03:30;;;;;;;4.43;3.95;;;21.30;64.80;;;;;;5033199;28;20037;-55
2023/06/05 03:06:04;;;;;;;7.20;4.15;;;21.30;64.90;;;;;;5044512;28;20041;-55
2023/06/05 03:08:36;;;;;;;4.55;4.05;;;21.20;64.80;;;;;;5030973;28;20029;-55
2023/06/05 03:11:04;;;;;;;5.13;3.95;;;21.20;64.90;;;;;;5046241;28;20044;-55
2023/06/05 03:13:30;;;;;;;5.13;4.50;;;21.20;65.00;;;;;;5044389;28;20466;-55
2023/06/05 03:15:57;;;;;;;4.43;4.00;;;21.20;65.10;;;;;;5045435;28;20041;-55
2023/06/05 03:18:25;;;;;;;4.88;3.92;;;21.10;65.10;;;;;;5047978;28;20064;-54
2023/06/05 03:20:54;;;;;;;4.95;4.25;;;21.10;65.30;;;;;;5030249;28;20056;-55
2023/06/05 03:23:23;;;;;;;5.60;4.10;;;21.00;65.30;;;;;;5032291;28;20089;-55
2023/06/05 03:25:50;;;;;;;5.68;3.97;;;21.00;65.30;;;;;;5046246;28;20034;-55
2023/06/05 03:28:16;;;;;;;5.45;4.50;;;21.00;66.00;;;;;;5045105;28;20060;-55
2023/06/05 03:30:41;;;;;;;6.05;4.10;;;21.00;65.40;;;;;;5045626;28;20022;-55
2023/06/05 03:33:07;;;;;;;5.35;4.00;;;21.00;65.40;;;;;;5047436;28;20033;-55
2023/06/05 03:35:32;;;;;;;4.93;3.85;;;21.00;65.50;;;;;;5033640;28;20037;-55
2023/06/05 03:37:58;;;;;;;4.53;4.13;;;20.90;65.50;;;;;;5042093;28;20029;-55
2023/06/05 03:40:24;;;;;;;5.05;3.80;;;20.90;66.20;;;;;;5031842;28;20061;-55
2023/06/05 03:42:50;;;;;;;5.45;3.92;;;20.90;65.50;;;;;;5046308;28;20021;-55
2023/06/05 03:45:16;;;;;;;4.45;3.55;;;20.90;66.20;;;;;;5030969;28;20034;-55
2023/06/05 03:47:43;;;;;;;4.75;3.97;;;20.80;65.50;;;;;;5047326;28;20021;-55
2023/06/05 03:50:10;;;;;;;4.47;3.75;;;20.80;65.50;;;;;;5046746;28;20105;-54
2023/06/05 03:52:37;;;;;;;6.57;4.22;;;20.80;65.60;;;;;;5037298;28;20116;-55
2023/06/05 03:55:04;;;;;;;4.50;4.05;;;20.80;65.90;;;;;;5026768;28;20489;-55
2023/06/05 03:57:30;;;;;;;5.28;4.22;;;20.80;65.80;;;;;;5027786;28;20049;-55
2023/06/05 03:59:55;;;;;;;7.75;4.47;;;20.70;65.90;;;;;;5025975;28;20030;-55
2023/06/05 04:02:21;;;;;;;7.97;4.20;;;20.70;66.00;;;;;;5027376;28;20025;-55
2023/06/05 04:04:47;;;;;;;4.13;3.72;;;20.70;65.90;;;;;;5042518;28;21804;-55
2023/06/05 04:07:12;;;;;;;6.78;4.40;;;20.70;66.00;;;;;;5046038;28;20018;-55
2023/06/05 04:09:38;;;;;;;5.30;4.47;;;20.70;66.00;;;;;;5028366;28;20038;-55
2023/06/05 04:12:05;;;;;;;5.28;4.57;;;20.70;66.00;;;;;;5045101;28;20095;-55
2023/06/05 04:14:30;;;;;;;6.72;4.30;;;20.70;66.00;;;;;;5044946;28;20041;-55
2023/06/05 04:16:56;;;;;;;6.53;4.68;;;20.70;66.10;;;;;;5047050;28;20026;-55
2023/06/05 04:19:21;;;;;;;5.10;4.25;;;20.60;66.30;;;;;;5034438;28;20034;-55
2023/06/05 04:21:47;;;;;;;6.28;4.60;;;20.60;66.30;;;;;;5038332;28;20405;-55
2023/06/05 04:24:12;;;;;;;6.03;4.25;;;20.50;66.30;;;;;;5043719;28;20060;-55
2023/06/05 04:26:41;;;;;;;6.97;4.32;;;20.60;66.40;;;;;;5045400;28;20059;-55
2023/06/05 04:29:12;;;;;;;6.43;4.40;;;20.50;66.40;;;;;;5034120;28;20045;-55
2023/06/05 04:31:40;;;;;;;5.00;4.10;;;20.50;66.60;;;;;;5038494;28;20034;-55
2023/06/05 04:34:07;;;;;;;6.53;4.45;;;20.50;66.60;;;;;;5044878;28;20033;-55
2023/06/05 04:36:34;;;;;;;7.95;4.70;;;20.50;66.60;;;;;;5032033;28;20030;-55
2023/06/05 04:39:01;;;;;;;5.28;4.47;;;20.50;66.60;;;;;;5026787;28;20041;-55
2023/06/05 04:41:28;;;;;;;4.63;3.95;;;20.50;66.60;;;;;;5025814;28;20025;-55
2023/06/05 04:43:54;;;;;;;10.75;3.97;;;20.40;66.80;;;;;;5026873;28;20065;-55
2023/06/05 04:46:20;;;;;;;5.75;4.15;;;20.40;66.80;;;;;;5037200;28;20017;-55
2023/06/05 04:48:45;;;;;;;6.10;4.80;;;20.40;66.80;;;;;;5041302;28;20148;-55
2023/06/05 04:51:14;;;;;;;6.05;4.40;;;20.30;66.70;;;;;;5026789;28;20072;-55
2023/06/05 04:53:41;;;;;;;8.50;4.38;;;20.40;66.70;;;;;;5026722;28;20033;-55
2023/06/05 04:56:07;;;;;;;8.80;4.53;;;20.40;66.70;;;;;;5043339;28;20069;-55
2023/06/05 04:58:33;;;;;;;6.13;4.40;;;20.30;66.60;;;;;;5038601;28;20038;-55
2023/06/05 05:01:04;;;;;;;5.43;4.22;;;20.40;66.70;;;;;;5026811;28;20048;-55
2023/06/05 05:03:31;;;;;;;4.85;4.00;;;20.30;66.60;;;;;;5033335;28;20056;-55
2023/06/05 05:05:56;;;;;;;4.65;4.22;;;20.30;66.50;;;;;;5031268;28;20047;-55
2023/06/05 05:08:22;;;;;;;7.13;5.07;;;20.40;66.50;;;;;;5033268;28;20026;-55
2023/06/05 05:10:47;;;;;;;7.13;4.18;;;20.30;66.50;;;;;;5034515;28;20105;-56
2023/06/05 05:13:13;;;;;;;9.10;4.22;;;20.30;66.50;;;;;;5032207;28;20389;-55
2023/06/05 05:15:39;;;;;;;6.63;4.25;;;20.30;66.50;;;;;;5024276;28;20416;-55
2023/06/05 05:18:04;;;;;;;7.82;4.57;;;20.30;66.50;;;;;;5024936;28;20060;-55
2023/06/05 05:20:32;;;;;;;5.38;4.32;;;20.30;66.50;;;;;;5025718;28;20090;-55
2023/06/05 05:23:00;;;;;;;7.03;4.38;;;20.30;66.50;;;;;;5040822;28;20423;-55
2023/06/05 05:25:26;;;;;;;8.27;4.10;;;20.30;66.50;;;;;;5025931;28;20104;-55
2023/06/05 05:27:51;;;;;;;6.05;4.50;;;20.30;66.50;;;;;;5025212;28;20080;-55
2023/06/05 05:30:17;;;;;;;8.27;4.38;;;20.30;66.60;;;;;;5043842;28;20067;-55
2023/06/05 05:32:42;;;;;;;5.72;4.25;;;20.30;66.50;;;;;;5036234;28;20029;-55
2023/06/05 05:35:08;;;;;;;11.65;4.18;;;20.30;66.50;;;;;;5025621;28;20038;-55
2023/06/05 05:37:34;;;;;;;5.57;4.30;;;20.20;66.50;;;;;;5044178;28;20033;-55
2023/06/05 05:39:59;;;;;;;7.65;4.55;;;20.20;66.50;;;;;;5026715;28;20029;-55
2023/06/05 05:42:25;;;;;;;8.27;4.55;;;20.20;66.50;;;;;;5025564;28;20046;-55
2023/06/05 05:44:51;;;;;;;11.02;4.53;;;20.20;66.50;;;;;;5030899;28;20539;-55
2023/06/05 05:47:16;;;;;;;8.65;4.57;;;20.20;66.50;;;;;;5032982;28;20057;-55
2023/06/05 05:49:42;;;;;;;7.85;4.53;;;20.20;66.50;;;;;;5025341;28;20048;-55
2023/06/05 05:52:08;;;;;;;8.18;4.63;;;20.20;66.50;;;;;;5024463;28;20034;-55
2023/06/05 05:54:33;;;;;;;6.70;4.45;;;20.20;66.50;;;;;;5043900;28;20037;-55
2023/06/05 05:56:59;;;;;;;6.50;4.25;;;20.20;66.40;;;;;;5039570;28;20026;-55
2023/06/05 05:59:24;;;;;;;7.78;4.18;;;20.20;66.50;;;;;;5039367;28;20134;-55
2023/06/05 06:01:50;;;;;;;7.40;4.47;;;20.20;66.40;;;;;;5035788;28;20022;-55
2023/06/05 06:04:19;;;;;;;4.45;3.60;;;20.20;66.50;;;;;;5023807;28;20032;-55
2023/06/05 06:06:47;;;;;;;8.73;4.32;;;20.20;66.40;;;;;;5036669;28;20033;-55
2023/06/05 06:09:14;;;;;;;5.65;4.72;;;20.20;66.50;;;;;;5027515;28;20052;-55
2023/06/05 06:11:40;;;;;;;8.57;4.20;;;20.20;66.40;;;;;;5036669;28;20108;-55
2023/06/05 06:14:06;;;;;;;4.88;4.38;;;20.10;66.40;;;;;;5043324;28;20033;-55
2023/06/05 06:16:31;;;;;;;4.93;3.25;;;20.20;66.40;;;;;;5023248;28;20049;-55
2023/06/05 06:18:57;;;;;;;5.28;3.78;;;20.10;66.30;;;;;;5021307;28;20030;-55
2023/06/05 06:21:23;;;;;;;6.10;4.30;;;20.20;66.40;;;;;;5024305;28;20096;-55
2023/06/05 06:23:48;;;;;;;9.85;4.63;;;20.20;67.10;;;;;;5022846;28;20030;-55
2023/06/05 06:26:15;;;;;;;5.45;4.47;;;20.20;66.30;;;;;;5023845;28;20030;-55
2023/06/05 06:28:41;;;;;;;8.05;4.60;;;20.20;66.30;;;;;;5024990;28;20057;-55
2023/06/05 06:31:07;;;;;;;6.25;4.00;;;20.20;66.20;;;;;;5024772;28;20030;-55
2023/06/05 06:33:32;;;;;;;6.43;4.07;;;20.20;66.20;;;;;;5025078;28;20038;-55
2023/06/05 06:35:58;;;;;;;7.25;4.20;;;20.20;66.10;;;;;;5023263;28;20026;-55
2023/06/05 06:38:29;;;;;;;7.50;4.50;;;20.20;66.10;;;;;;5023609;28;20034;-55
2023/06/05 06:40:58;;;;;;;5.85;4.50;;;20.20;66.00;;;;;;5026133;28;20084;-55
2023/06/05 06:43:24;;;;;;;6.22;3.85;;;20.20;65.90;;;;;;5033215;28;20037;-54
2023/06/05 06:45:50;;;;;;;11.85;4.63;;;20.30;66.20;;;;;;5043655;28;20021;-55
2023/06/05 06:48:20;;;;;;;12.60;4.63;;;20.30;66.70;;;;;;5037697;28;20377;-55
2023/06/05 06:50:46;;;;;;;11.45;4.90;;;20.30;65.90;;;;;;5035225;28;20034;-54
2023/06/05 06:53:11;;;;;;;6.90;4.63;;;20.30;65.90;;;;;;5023061;28;20041;-55
2023/06/05 06:55:37;;;;;;;15.77;4.18;;;20.30;65.90;;;;;;5023026;28;20030;-55
2023/06/05 06:58:04;;;;;;;10.98;4.50;;;20.30;65.80;;;;;;5024384;28;20026;-54
2023/06/05 07:00:29;;;;;;;10.60;5.07;;;20.30;65.80;;;;;;5042139;28;20032;-55
2023/06/05 07:02:55;;;;;;;12.38;4.30;;;20.30;65.90;;;;;;5042577;28;20021;-55
2023/06/05 07:05:20;;;;;;;6.90;4.38;;;20.30;65.80;;;;;;5043871;28;20032;-55
2023/06/05 07:07:46;;;;;;;28.45;6.07;;;20.30;65.70;;;;;;5042287;28;20030;-55
2023/06/05 07:10:11;;;;;;;15.60;5.00;;;20.30;65.80;;;;;;5041649;28;20141;-55
2023/06/05 07:12:37;;;;;;;18.70;4.97;;;20.30;65.80;;;;;;5044281;28;20056;-55
2023/06/05 07:15:03;;;;;;;115.95;17.63;;;20.40;65.90;;;;;;5042279;28;20417;-55
2023/06/05 07:17:30;;;;;;;69.68;10.95;;;20.40;65.80;;;;;;5043069;28;20147;-55
2023/06/05 07:19:56;;;;;;;24.65;6.63;;;20.40;66.40;;;;;;5040515;28;20045;-54
2023/06/05 07:22:24;;;;;;;25.23;7.05;;;20.40;65.70;;;;;;5037412;28;20022;-55
2023/06/05 07:24:50;;;;;;;13.02;4.88;;;20.40;65.70;;;;;;5038450;28;20030;-55
2023/06/05 07:27:16;;;;;;;19.27;5.05;;;20.40;65.60;;;;;;5042282;28;20071;-55
2023/06/05 07:29:41;;;;;;;21.80;5.78;;;20.40;65.50;;;;;;5043899;28;20034;-54
2023/06/05 07:32:07;;;;;;;20.50;5.30;;;20.50;65.60;;;;;;5046178;28;20032;-55
2023/06/05 07:34:34;;;;;;;17.10;4.78;;;20.50;65.70;;;;;;5048057;28;20040;-55
2023/06/05 07:37:00;;;;;;;14.32;5.53;;;20.50;65.70;;;;;;5047332;28;20067;-55
2023/06/05 07:39:26;;;;;;;8.43;4.53;;;20.50;65.70;;;;;;5045828;28;20038;-55
2023/06/05 07:41:51;;;;;;;16.17;4.70;;;20.50;65.80;;;;;;5046055;28;20052;-55
2023/06/05 07:44:18;;;;;;;20.30;4.60;;;20.50;65.80;;;;;;5030367;28;20037;-55
2023/06/05 07:46:45;;;;;;;12.68;5.18;;;20.50;65.80;;;;;;5041236;28;20026;-55
2023/06/05 07:49:11;;;;;;;14.15;4.95;;;20.50;65.70;;;;;;5025957;28;20100;-55
2023/06/05 07:51:37;;;;;;;15.23;4.65;;;20.50;65.60;;;;;;5037764;28;20370;-54
2023/06/05 07:54:07;;;;;;;10.75;4.90;;;20.50;65.60;;;;;;5045477;28;20117;-55
2023/06/05 07:56:33;;;;;;;7.93;4.22;;;20.50;65.60;;;;;;5045408;28;20156;-55
2023/06/05 07:59:02;;;;;;;12.60;4.75;;;20.60;65.60;;;;;;5045550;28;20038;-55
2023/06/05 08:01:31;;;;;;;17.55;5.30;;;20.60;65.60;;;;;;5035417;28;20022;-55
2023/06/05 08:03:57;;;;;;;14.55;4.65;;;20.60;65.50;;;;;;5025543;28;20026;-55
2023/06/05 08:06:27;;;;;;;13.63;4.90;;;20.60;65.60;;;;;;5026623;28;20022;-55
2023/06/05 08:08:52;;;;;;;6.72;4.43;;;20.60;65.60;;;;;;5026522;28;20398;-55
2023/06/05 08:11:18;;;;;;;14.07;5.15;;;20.60;65.60;;;;;;5024830;28;20026;-55
2023/06/05 08:13:44;;;;;;;9.55;4.82;;;20.70;65.70;;;;;;5033135;28;20509;-55
2023/06/05 08:16:09;;;;;;;13.95;5.10;;;20.70;65.60;;;;;;5046589;28;20033;-55
2023/06/05 08:18:35;;;;;;;8.40;4.70;;;20.70;65.60;;;;;;5044902;28;20041;-55
2023/06/05 08:21:01;;;;;;;10.20;5.35;;;20.70;65.60;;;;;;5046649;28;20510;-55
2023/06/05 08:23:26;;;;;;;11.85;4.90;;;20.70;65.50;;;;;;5044457;28;20030;-55
2023/06/05 08:25:52;;;;;;;10.73;5.13;;;20.70;65.70;;;;;;5041680;28;20024;-55
2023/06/05 08:28:18;;;;;;;9.55;5.32;;;20.70;65.60;;;;;;5048224;28;20517;-55
2023/06/05 08:30:46;;;;;;;17.35;5.07;;;20.70;65.50;;;;;;5050342;28;20029;-55
2023/06/05 08:33:12;;;;;;;19.88;5.40;;;20.70;65.60;;;;;;5028145;28;20021;-55
2023/06/05 08:35:41;;;;;;;24.85;6.07;;;20.70;65.70;;;;;;5045129;28;20028;-55
2023/06/05 08:38:06;;;;;;;20.55;6.20;;;20.70;65.90;;;;;;5052193;28;20025;-55
2023/06/05 08:40:33;;;;;;;19.65;6.05;;;20.70;66.20;;;;;;5043251;28;20036;-55
2023/06/05 08:43:00;;;;;;;25.35;6.20;;;20.80;66.50;;;;;;5033426;28;20105;-56
2023/06/05 08:45:25;;;;;;;27.88;6.82;;;20.80;66.50;;;;;;5058565;28;20025;-56
2023/06/05 08:47:52;;;;;;;22.17;6.47;;;20.80;66.30;;;;;;5045722;28;20449;-55
2023/06/05 08:50:17;;;;;;;19.15;5.68;;;20.90;66.20;;;;;;5027359;28;20038;-56
2023/06/05 08:52:45;;;;;;;17.27;5.50;;;20.90;66.20;;;;;;5026164;28;20032;-55
2023/06/05 08:55:11;;;;;;;25.38;5.63;;;20.90;66.30;;;;;;5040758;28;20085;-56
2023/06/05 08:57:38;;;;;;;27.40;6.65;;;20.90;66.30;;;;;;5024812;28;20375;-55
2023/06/05 09:00:07;;;;;;;23.40;6.55;;;20.90;66.50;;;;;;5041569;28;20052;-55
2023/06/05 09:02:33;;;;;;;23.98;5.95;;;20.90;66.40;;;;;;5044327;28;20144;-55
2023/06/05 09:05:00;;;;;;;32.47;6.22;;;20.90;66.50;;;;;;5045392;28;20037;-55
2023/06/05 09:07:28;;;;;;;22.02;5.82;;;21.00;66.60;;;;;;5036209;28;20029;-55
2023/06/05 09:09:53;;;;;;;47.58;7.50;;;21.00;66.50;;;;;;5044292;28;20072;-55
2023/06/05 09:12:19;;;;;;;28.85;7.53;;;21.00;66.70;;;;;;5042336;28;20458;-55
2023/06/05 09:14:45;;;;;;;54.15;9.52;;;21.00;66.60;;;;;;5043118;28;20482;-55
2023/06/05 09:17:13;;;;;;;46.28;8.05;;;21.10;67.20;;;;;;5041771;28;20036;-55
2023/06/05 09:19:40;;;;;;;49.38;8.60;;;21.10;67.40;;;;;;5041747;28;20041;-55
2023/06/05 09:22:09;;;;;;;59.88;9.77;;;21.10;67.20;;;;;;5042983;28;20025;-55
2023/06/05 09:24:34;;;;;;;302.13;34.67;;;21.10;67.30;;;;;;5022199;28;20060;-55
2023/06/05 09:27:09;;;;;;;113.63;14.38;;;21.20;67.70;;;;;;5040474;28;20022;-56
2023/06/05 09:29:41;;;;;;;73.03;11.60;;;21.20;67.50;;;;;;5055847;28;20447;-56
2023/06/05 09:32:10;;;;;;;65.40;10.57;;;21.20;67.80;;;;;;5058234;28;20037;-55
2023/06/05 09:34:37;;;;;;;56.72;10.07;;;21.20;68.00;;;;;;5050158;28;20044;-56
2023/06/05 09:37:04;;;;;;;50.28;9.55;;;21.30;67.70;;;;;;5043689;28;20028;-56
2023/06/05 09:39:30;;;;;;;50.08;9.25;;;21.30;67.50;;;;;;5045686;28;20055;-56
2023/06/05 09:41:57;;;;;;;43.80;8.88;;;21.30;67.90;;;;;;5077441;28;20035;-56
2023/06/05 09:44:23;;;;;;;56.33;9.50;;;21.30;67.10;;;;;;5045492;28;20135;-56
2023/06/05 09:46:59;;;;;;;58.88;9.90;;;21.30;67.30;;;;;;5041866;28;20064;-56
2023/06/05 09:49:29;;;;;;;44.60;9.10;;;21.30;67.40;;;;;;5036230;28;20385;-56
2023/06/05 09:51:56;;;;;;;43.65;8.77;;;21.40;67.40;;;;;;5039590;28;20025;-56
2023/06/05 09:54:22;;;;;;;84.78;11.15;;;21.40;67.40;;;;;;5046440;28;20068;-56
2023/06/05 09:56:51;;;;;;;78.85;10.68;;;21.50;67.40;;;;;;5030957;28;20025;-56
2023/06/05 09:59:21;;;;;;;58.22;10.05;;;21.50;67.40;;;;;;5041336;28;20033;-56
2023/06/05 10:01:48;;;;;;;94.18;12.50;;;21.50;67.50;;;;;;5022015;28;20022;-55
2023/06/05 10:04:15;;;;;;;34.53;7.85;;;21.60;67.70;;;;;;5030902;28;20168;-56
2023/06/05 10:06:41;;;;;;;46.67;8.15;;;21.60;67.90;;;;;;5044670;28;20045;-56
2023/06/05 10:09:06;;;;;;;57.15;8.73;;;21.60;67.90;;;;;;5015498;28;20052;-56
2023/06/05 10:11:32;;;;;;;41.80;8.13;;;21.70;67.90;;;;;;5038937;28;20029;-56
2023/06/05 10:13:59;;;;;;;40.55;8.20;;;21.70;67.70;;;;;;5038904;28;20037;-56
2023/06/05 10:16:25;;;;;;;34.35;7.38;;;21.80;67.60;;;;;;5035164;28;20456;-56
2023/06/05 10:18:51;;;;;;;33.05;7.30;;;21.80;67.40;;;;;;5036541;28;20029;-56
2023/06/05 10:21:16;;;;;;;41.67;7.82;;;21.80;67.00;;;;;;5029591;28;20093;-56
2023/06/05 10:23:49;;;;;;;47.30;7.88;;;21.90;66.90;;;;;;5019061;28;20075;-56
2023/06/05 10:26:30;;;;;;;33.42;8.07;;;21.90;66.60;;;;;;5040946;28;20174;-56
2023/06/05 10:29:04;;;;;;;38.20;6.82;;;22.00;66.70;;;;;;5041400;28;20125;-56
2023/06/05 10:31:53;;;;;;;39.70;7.10;;;22.10;66.60;;;;;;5039401;28;20037;-56
2023/06/05 10:34:18;;;;;;;67.38;9.00;;;22.20;66.60;;;;;;5036153;28;20356;-56
2023/06/05 10:37:10;;;;;;;41.38;8.35;;;22.20;66.50;;;;;;5030741;28;20062;-56
2023/06/05 10:39:36;;;;;;;72.97;10.55;;;22.20;66.50;;;;;;5032643;28;20052;-56
2023/06/05 10:42:02;;;;;;;70.93;10.80;;;22.30;66.50;;;;;;5040553;28;20423;-55
2023/06/05 10:44:43;;;;;;;73.40;11.15;;;22.40;66.50;;;;;;5025127;28;20049;-56
2023/06/05 10:47:37;;;;;;;57.15;10.70;;;22.40;66.40;;;;;;5036928;28;20028;-55
2023/06/05 10:50:19;;;;;;;64.13;10.18;;;22.50;66.00;;;;;;5036346;28;20029;-56
2023/06/05 10:52:45;;;;;;;59.95;10.98;;;22.60;65.90;;;;;;5040186;28;20041;-56
2023/06/05 10:55:12;;;;;;;70.60;11.40;;;22.60;65.90;;;;;;5042043;28;20037;-56
2023/06/05 10:58:02;;;;;;;57.58;9.85;;;22.70;65.90;;;;;;5044103;28;20091;-56
2023/06/05 11:00:28;;;;;;;80.80;12.45;;;22.80;66.10;;;;;;5049998;28;20033;-56
2023/06/05 11:02:54;;;;;;;66.97;10.52;;;22.80;66.10;;;;;;5025440;28;20413;-56
2023/06/05 11:05:20;;;;;;;70.78;10.80;;;22.80;66.10;;;;;;5034966;28;20036;-56
2023/06/05 11:07:46;;;;;;;77.65;12.13;;;22.90;65.70;;;;;;5025166;28;20037;-56
2023/06/05 11:10:21;;;;;;;140.77;16.88;;;23.00;65.70;;;;;;5046498;28;20338;-56
2023/06/05 11:12:46;;;;;;;100.68;12.85;;;23.10;65.60;;;;;;5050204;28;20044;-55
2023/06/05 11:15:13;;;;;;;120.53;15.30;;;23.20;65.40;;;;;;5056442;28;20116;-56
2023/06/05 11:17:40;;;;;;;105.30;15.90;;;23.30;65.30;;;;;;5054996;28;20025;-56
2023/06/05 11:20:26;;;;;;;142.20;17.83;;;23.30;65.00;;;;;;5053515;28;20033;-56
2023/06/05 11:22:52;;;;;;;104.55;14.98;;;23.40;65.00;;;;;;5035775;28;20092;-55
2023/06/05 11:25:18;;;;;;;104.88;16.58;;;23.50;64.70;;;;;;5040686;28;20049;-55
2023/06/05 11:27:50;;;;;;;118.85;17.23;;;23.50;65.20;;;;;;5065872;28;20047;-55
2023/06/05 11:30:17;;;;;;;101.07;12.02;;;23.50;64.70;;;;;;5066262;28;20032;-55
2023/06/05 11:32:43;;;;;;;99.22;14.32;;;23.50;64.50;;;;;;5050156;28;20028;-55
2023/06/05 11:35:09;;;;;;;95.72;13.95;;;23.50;64.60;;;;;;5063508;28;20033;-56
2023/06/05 11:37:34;;;;;;;80.63;14.07;;;23.60;64.30;;;;;;5028035;28;20049;-55
2023/06/05 11:40:10;;;;;;;116.60;16.60;;;23.70;63.80;;;;;;5030095;28;20030;-56
2023/06/05 11:42:36;;;;;;;115.88;16.05;;;23.80;63.80;;;;;;5046225;28;20033;-55
2023/06/05 11:45:02;;;;;;;86.75;14.05;;;23.90;63.40;;;;;;5046100;28;20048;-55
2023/06/05 11:47:29;;;;;;;112.90;15.60;;;23.90;63.20;;;;;;5044030;28;20033;-56
2023/06/05 11:50:11;;;;;;;107.35;14.70;;;24.00;63.50;;;;;;5046630;28;20152;-55
2023/06/05 11:52:37;;;;;;;105.43;14.90;;;24.00;63.20;;;;;;5065461;28;20095;-56
2023/06/05 11:55:19;;;;;;;110.85;16.30;;;24.10;63.10;;;;;;5065572;28;20029;-55
2023/06/05 11:57:46;;;;;;;102.57;15.82;;;24.10;62.80;;;;;;5045227;28;20033;-55
2023/06/05 12:00:12;;;;;;;110.50;16.40;;;24.20;62.70;;;;;;5045545;28;20089;-56
2023/06/05 12:02:38;;;;;;;117.10;16.70;;;24.30;62.50;;;;;;5045102;28;20018;-55
2023/06/05 12:05:10;;;;;;;115.53;16.35;;;24.50;62.40;;;;;;5035653;28;20067;-56
2023/06/05 12:07:37;;;;;;;108.53;15.85;;;24.60;61.80;;;;;;5044691;28;20025;-56
2023/06/05 12:10:06;;;;;;;167.15;21.77;;;24.60;61.70;;;;;;5044498;28;20088;-56
2023/06/05 12:12:33;;;;;;;117.25;16.83;;;24.70;61.80;;;;;;5026975;28;20057;-55
2023/06/05 12:15:14;;;;;;;118.75;15.98;;;24.80;61.40;;;;;;5027933;28;20056;-56
2023/06/05 12:17:39;;;;;;;113.90;15.98;;;24.90;61.00;;;;;;5028765;28;20030;-56
2023/06/05 12:20:08;;;;;;;123.30;19.10;;;25.00;60.70;;;;;;5024923;28;20084;-56
2023/06/05 12:22:34;;;;;;;106.13;16.42;;;25.10;60.70;;;;;;5026328;28;20025;-55
2023/06/05 12:25:16;;;;;;;107.80;18.00;;;25.10;60.70;;;;;;5057505;28;20079;-56
2023/06/05 12:27:41;;;;;;;110.97;16.13;;;25.20;60.20;;;;;;5037154;28;20085;-56
2023/06/05 12:30:09;;;;;;;111.93;16.77;;;25.30;60.10;;;;;;5032682;28;20040;-55
2023/06/05 12:32:34;;;;;;;146.20;19.95;;;25.30;59.80;;;;;;5040368;28;20037;-56
2023/06/05 12:35:00;;;;;;;140.05;17.92;;;25.50;59.80;;;;;;5042911;28;20080;-55
2023/06/05 12:37:37;;;;;;;135.00;19.17;;;25.50;59.50;;;;;;5037368;28;20052;-55
2023/06/05 12:40:08;;;;;;;142.70;18.85;;;25.60;59.50;;;;;;5040408;28;20083;-54